Terminal Aerodrome Forecast
Issued by NWS

Home | Current Version | Previous Version | Text Only | Print | Product List | Glossary On
Versions: 1 2 3 4 5 6 7 8 9 10 11 12 13 14 15 16 17 18 19 20
942
FTUS44 KMAF 270539 CCB
TAFHOB
TAF COR
KHOB 270539Z 2706/2806 33011KT P6SM SKC
     FM270900 02011KT P6SM SKC
     FM272200 18009KT P6SM SKC=

USA.gov is the U.S. government's official web portal to all federal, state and local government web resources and services.